sensor_id;sensor_type;location;lat;lon;timestamp;temperature;humidity
1978;DHT22;989;53.016;8.346;2022-07-29T00:00:42;13.50;1.00
1978;DHT22;989;53.016;8.346;2022-07-29T00:03:11;13.50;1.00
1978;DHT22;989;53.016;8.346;2022-07-29T00:05:39;13.50;1.00
1978;DHT22;989;53.016;8.346;2022-07-29T00:08:06;13.50;1.00
1978;DHT22;989;53.016;8.346;2022-07-29T00:10:32;13.50;1.00
1978;DHT22;989;53.016;8.346;2022-07-29T00:12:58;13.60;1.00
1978;DHT22;989;53.016;8.346;2022-07-29T00:15:24;13.60;1.00
1978;DHT22;989;53.016;8.346;2022-07-29T00:17:50;13.60;1.00
1978;DHT22;989;53.016;8.346;2022-07-29T00:20:16;13.60;1.00
1978;DHT22;989;53.016;8.346;2022-07-29T00:22:43;13.60;1.00
1978;DHT22;989;53.016;8.346;2022-07-29T00:25:09;13.60;1.00
1978;DHT22;989;53.016;8.346;2022-07-29T00:27:35;13.70;1.00
1978;DHT22;989;53.016;8.346;2022-07-29T00:30:03;13.70;1.00
1978;DHT22;989;53.016;8.346;2022-07-29T00:32:29;13.70;1.00
1978;DHT22;989;53.016;8.346;2022-07-29T00:34:55;13.70;1.00
1978;DHT22;989;53.016;8.346;2022-07-29T00:37:39;13.70;1.00
1978;DHT22;989;53.016;8.346;2022-07-29T00:40:06;13.70;1.00
1978;DHT22;989;53.016;8.346;2022-07-29T00:42:46;13.70;1.00
1978;DHT22;989;53.016;8.346;2022-07-29T00:45:13;13.70;1.00
1978;DHT22;989;53.016;8.346;2022-07-29T00:47:40;13.70;1.00
1978;DHT22;989;53.016;8.346;2022-07-29T00:50:08;13.70;1.00
1978;DHT22;989;53.016;8.346;2022-07-29T00:52:36;13.70;1.00
1978;DHT22;989;53.016;8.346;2022-07-29T00:55:04;13.70;1.00
1978;DHT22;989;53.016;8.346;2022-07-29T00:57:31;13.70;1.00
1978;DHT22;989;53.016;8.346;2022-07-29T00:59:58;13.70;1.00
1978;DHT22;989;53.016;8.346;2022-07-29T01:02:24;13.80;1.00
1978;DHT22;989;53.016;8.346;2022-07-29T01:04:50;13.70;1.00
1978;DHT22;989;53.016;8.346;2022-07-29T01:07:17;13.70;1.00
1978;DHT22;989;53.016;8.346;2022-07-29T01:09:44;13.70;1.00
1978;DHT22;989;53.016;8.346;2022-07-29T01:12:12;13.70;1.00
1978;DHT22;989;53.016;8.346;2022-07-29T01:14:39;13.80;1.00
1978;DHT22;989;53.016;8.346;2022-07-29T01:17:18;13.70;1.00
1978;DHT22;989;53.016;8.346;2022-07-29T01:20:20;13.70;1.00
1978;DHT22;989;53.016;8.346;2022-07-29T01:25:58;13.70;1.00
1978;DHT22;989;53.016;8.346;2022-07-29T01:29:00;13.70;1.00
1978;DHT22;989;53.016;8.346;2022-07-29T01:31:42;13.70;1.00
1978;DHT22;989;53.016;8.346;2022-07-29T01:34:14;13.70;1.00
1978;DHT22;989;53.016;8.346;2022-07-29T01:36:50;13.70;1.00
1978;DHT22;989;53.016;8.346;2022-07-29T01:39:23;13.70;1.00
1978;DHT22;989;53.016;8.346;2022-07-29T01:41:59;13.70;1.00
1978;DHT22;989;53.016;8.346;2022-07-29T01:44:32;13.70;1.00
1978;DHT22;989;53.016;8.346;2022-07-29T01:47:04;13.70;1.00
1978;DHT22;989;53.016;8.346;2022-07-29T01:49:35;13.70;1.00
1978;DHT22;989;53.016;8.346;2022-07-29T01:52:07;13.70;1.00
1978;DHT22;989;53.016;8.346;2022-07-29T01:54:38;13.70;1.00
1978;DHT22;989;53.016;8.346;2022-07-29T01:57:11;13.60;1.00
1978;DHT22;989;53.016;8.346;2022-07-29T01:59:38;13.60;1.00
1978;DHT22;989;53.016;8.346;2022-07-29T02:02:08;13.60;1.00
1978;DHT22;989;53.016;8.346;2022-07-29T02:04:36;13.60;1.00
1978;DHT22;989;53.016;8.346;2022-07-29T02:07:10;13.50;1.00
1978;DHT22;989;53.016;8.346;2022-07-29T02:09:39;13.60;1.00
1978;DHT22;989;53.016;8.346;2022-07-29T02:12:07;13.60;1.00
1978;DHT22;989;53.016;8.346;2022-07-29T02:14:37;13.50;1.00
1978;DHT22;989;53.016;8.346;2022-07-29T02:17:04;13.50;1.00
1978;DHT22;989;53.016;8.346;2022-07-29T02:19:32;13.50;1.00
1978;DHT22;989;53.016;8.346;2022-07-29T02:22:00;13.50;1.00
1978;DHT22;989;53.016;8.346;2022-07-29T02:24:27;13.40;1.00
1978;DHT22;989;53.016;8.346;2022-07-29T02:26:56;13.50;1.00
1978;DHT22;989;53.016;8.346;2022-07-29T02:29:25;13.50;1.00
1978;DHT22;989;53.016;8.346;2022-07-29T02:31:52;13.50;1.00
1978;DHT22;989;53.016;8.346;2022-07-29T02:34:20;13.50;1.00
1978;DHT22;989;53.016;8.346;2022-07-29T02:36:48;13.40;1.00
1978;DHT22;989;53.016;8.346;2022-07-29T02:39:15;13.40;1.00
1978;DHT22;989;53.016;8.346;2022-07-29T02:41:49;13.40;1.00
1978;DHT22;989;53.016;8.346;2022-07-29T02:44:18;13.40;1.00
1978;DHT22;989;53.016;8.346;2022-07-29T02:47:01;13.40;1.00
1978;DHT22;989;53.016;8.346;2022-07-29T02:49:48;13.30;1.00
1978;DHT22;989;53.016;8.346;2022-07-29T02:52:34;13.30;1.00
1978;DHT22;989;53.016;8.346;2022-07-29T02:57:55;13.30;1.00
1978;DHT22;989;53.016;8.346;2022-07-29T03:00:27;13.30;1.00
1978;DHT22;989;53.016;8.346;2022-07-29T03:02:56;13.30;1.00
1978;DHT22;989;53.016;8.346;2022-07-29T03:05:24;13.20;1.00
1978;DHT22;989;53.016;8.346;2022-07-29T03:07:54;13.20;1.00
1978;DHT22;989;53.016;8.346;2022-07-29T03:10:21;13.20;1.00
1978;DHT22;989;53.016;8.346;2022-07-29T03:12:48;13.20;1.00
1978;DHT22;989;53.016;8.346;2022-07-29T03:15:15;13.20;1.00
1978;DHT22;989;53.016;8.346;2022-07-29T03:17:42;13.20;1.00
1978;DHT22;989;53.016;8.346;2022-07-29T03:20:09;13.20;1.00
1978;DHT22;989;53.016;8.346;2022-07-29T03:22:43;13.10;1.00
1978;DHT22;989;53.016;8.346;2022-07-29T03:25:10;13.10;1.00
1978;DHT22;989;53.016;8.346;2022-07-29T03:27:37;13.10;1.00
1978;DHT22;989;53.016;8.346;2022-07-29T03:30:04;13.10;1.00
1978;DHT22;989;53.016;8.346;2022-07-29T03:32:30;13.20;1.00
1978;DHT22;989;53.016;8.346;2022-07-29T03:34:56;13.10;1.00
1978;DHT22;989;53.016;8.346;2022-07-29T03:37:22;13.10;1.00
1978;DHT22;989;53.016;8.346;2022-07-29T03:39:49;13.10;1.00
1978;DHT22;989;53.016;8.346;2022-07-29T03:42:19;13.10;1.00
1978;DHT22;989;53.016;8.346;2022-07-29T03:44:47;13.10;1.00
1978;DHT22;989;53.016;8.346;2022-07-29T03:47:15;13.10;1.00
1978;DHT22;989;53.016;8.346;2022-07-29T03:49:44;13.10;1.00
1978;DHT22;989;53.016;8.346;2022-07-29T03:52:12;13.10;1.00
1978;DHT22;989;53.016;8.346;2022-07-29T03:54:38;13.10;1.00
1978;DHT22;989;53.016;8.346;2022-07-29T03:57:06;13.10;1.00
1978;DHT22;989;53.016;8.346;2022-07-29T03:59:33;13.10;1.00
1978;DHT22;989;53.016;8.346;2022-07-29T04:02:04;13.10;1.00
1978;DHT22;989;53.016;8.346;2022-07-29T04:04:34;13.10;2.10
1978;DHT22;989;53.016;8.346;2022-07-29T04:07:01;13.00;2.40
1978;DHT22;989;53.016;8.346;2022-07-29T04:09:27;13.10;2.40
1978;DHT22;989;53.016;8.346;2022-07-29T04:11:53;13.00;2.00
1978;DHT22;989;53.016;8.346;2022-07-29T04:14:19;13.10;2.30
1978;DHT22;989;53.016;8.346;2022-07-29T04:16:46;13.10;2.30
1978;DHT22;989;53.016;8.346;2022-07-29T04:19:12;13.00;2.30
1978;DHT22;989;53.016;8.346;2022-07-29T04:21:39;13.00;2.60
1978;DHT22;989;53.016;8.346;2022-07-29T04:24:06;13.10;1.90
1978;DHT22;989;53.016;8.346;2022-07-29T04:26:33;13.10;1.00
1978;DHT22;989;53.016;8.346;2022-07-29T04:28:59;13.10;2.00
1978;DHT22;989;53.016;8.346;2022-07-29T04:31:25;13.10;1.90
1978;DHT22;989;53.016;8.346;2022-07-29T04:33:51;13.10;1.00
1978;DHT22;989;53.016;8.346;2022-07-29T04:36:17;13.20;1.00
1978;DHT22;989;53.016;8.346;2022-07-29T04:38:43;13.20;1.00
1978;DHT22;989;53.016;8.346;2022-07-29T04:41:09;13.20;1.00
1978;DHT22;989;53.016;8.346;2022-07-29T04:43:36;13.20;1.00
1978;DHT22;989;53.016;8.346;2022-07-29T04:46:03;13.30;1.00
1978;DHT22;989;53.016;8.346;2022-07-29T04:48:29;13.30;1.00
1978;DHT22;989;53.016;8.346;2022-07-29T04:50:56;13.30;1.00
1978;DHT22;989;53.016;8.346;2022-07-29T04:53:22;13.30;1.00
1978;DHT22;989;53.016;8.346;2022-07-29T04:55:48;13.40;1.00
1978;DHT22;989;53.016;8.346;2022-07-29T04:58:14;13.40;1.00
1978;DHT22;989;53.016;8.346;2022-07-29T05:00:40;13.40;1.00
1978;DHT22;989;53.016;8.346;2022-07-29T05:03:07;13.50;1.00
1978;DHT22;989;53.016;8.346;2022-07-29T05:05:33;13.50;1.00
1978;DHT22;989;53.016;8.346;2022-07-29T05:07:59;13.50;1.00
1978;DHT22;989;53.016;8.346;2022-07-29T05:10:25;13.50;1.00
1978;DHT22;989;53.016;8.346;2022-07-29T05:12:51;13.60;1.00
1978;DHT22;989;53.016;8.346;2022-07-29T05:15:18;13.60;1.00
1978;DHT22;989;53.016;8.346;2022-07-29T05:17:44;13.70;1.00
1978;DHT22;989;53.016;8.346;2022-07-29T05:20:10;13.80;1.00
1978;DHT22;989;53.016;8.346;2022-07-29T05:22:36;13.80;1.00
1978;DHT22;989;53.016;8.346;2022-07-29T05:25:02;13.90;1.00
1978;DHT22;989;53.016;8.346;2022-07-29T05:27:28;14.00;1.00
1978;DHT22;989;53.016;8.346;2022-07-29T05:29:54;14.00;1.00
1978;DHT22;989;53.016;8.346;2022-07-29T05:32:20;14.10;1.00
1978;DHT22;989;53.016;8.346;2022-07-29T05:34:47;14.10;1.00
1978;DHT22;989;53.016;8.346;2022-07-29T05:37:13;14.30;1.00
1978;DHT22;989;53.016;8.346;2022-07-29T05:39:39;14.50;1.00
1978;DHT22;989;53.016;8.346;2022-07-29T05:42:09;14.70;1.00
1978;DHT22;989;53.016;8.346;2022-07-29T05:44:39;14.80;1.00
1978;DHT22;989;53.016;8.346;2022-07-29T05:47:05;15.00;1.00
1978;DHT22;989;53.016;8.346;2022-07-29T05:49:32;15.10;1.00
1978;DHT22;989;53.016;8.346;2022-07-29T05:51:58;15.20;1.00
1978;DHT22;989;53.016;8.346;2022-07-29T05:54:25;15.30;1.00
1978;DHT22;989;53.016;8.346;2022-07-29T05:56:51;15.30;1.00
1978;DHT22;989;53.016;8.346;2022-07-29T05:59:17;15.40;1.00
1978;DHT22;989;53.016;8.346;2022-07-29T06:01:43;15.60;1.00
1978;DHT22;989;53.016;8.346;2022-07-29T06:04:09;15.70;1.00
1978;DHT22;989;53.016;8.346;2022-07-29T06:06:35;15.70;1.00
1978;DHT22;989;53.016;8.346;2022-07-29T06:09:02;15.70;1.00
1978;DHT22;989;53.016;8.346;2022-07-29T06:11:28;15.70;1.00
1978;DHT22;989;53.016;8.346;2022-07-29T06:13:54;15.70;1.00
1978;DHT22;989;53.016;8.346;2022-07-29T06:16:20;15.80;1.00
1978;DHT22;989;53.016;8.346;2022-07-29T06:18:46;15.80;1.00
1978;DHT22;989;53.016;8.346;2022-07-29T06:21:12;15.90;1.00
1978;DHT22;989;53.016;8.346;2022-07-29T06:23:39;16.00;1.00
1978;DHT22;989;53.016;8.346;2022-07-29T06:26:05;16.00;1.00
1978;DHT22;989;53.016;8.346;2022-07-29T06:28:32;16.30;1.00
1978;DHT22;989;53.016;8.346;2022-07-29T06:30:58;16.60;1.00
1978;DHT22;989;53.016;8.346;2022-07-29T06:33:25;16.70;1.00
1978;DHT22;989;53.016;8.346;2022-07-29T06:35:51;16.70;1.00
1978;DHT22;989;53.016;8.346;2022-07-29T06:38:17;16.90;1.00
1978;DHT22;989;53.016;8.346;2022-07-29T06:40:46;17.10;1.00
1978;DHT22;989;53.016;8.346;2022-07-29T06:43:47;17.30;1.00
1978;DHT22;989;53.016;8.346;2022-07-29T06:46:15;17.60;1.00
1978;DHT22;989;53.016;8.346;2022-07-29T06:48:43;17.80;1.00
1978;DHT22;989;53.016;8.346;2022-07-29T06:51:10;18.30;1.00
1978;DHT22;989;53.016;8.346;2022-07-29T06:53:38;19.00;1.00
1978;DHT22;989;53.016;8.346;2022-07-29T06:56:05;19.30;1.00
1978;DHT22;989;53.016;8.346;2022-07-29T06:58:31;19.50;1.00
1978;DHT22;989;53.016;8.346;2022-07-29T07:01:00;20.10;1.00
1978;DHT22;989;53.016;8.346;2022-07-29T07:03:26;20.40;1.00
1978;DHT22;989;53.016;8.346;2022-07-29T07:05:53;19.70;1.00
1978;DHT22;989;53.016;8.346;2022-07-29T07:08:21;19.60;1.00
1978;DHT22;989;53.016;8.346;2022-07-29T07:10:48;19.80;1.00
1978;DHT22;989;53.016;8.346;2022-07-29T07:13:14;20.00;1.00
1978;DHT22;989;53.016;8.346;2022-07-29T07:15:40;20.70;1.00
1978;DHT22;989;53.016;8.346;2022-07-29T07:18:06;20.60;1.00
1978;DHT22;989;53.016;8.346;2022-07-29T07:20:33;21.00;1.00
1978;DHT22;989;53.016;8.346;2022-07-29T07:23:00;20.50;1.00
1978;DHT22;989;53.016;8.346;2022-07-29T07:25:26;20.20;1.00
1978;DHT22;989;53.016;8.346;2022-07-29T07:27:52;20.40;1.00
1978;DHT22;989;53.016;8.346;2022-07-29T07:30:18;20.80;1.00
1978;DHT22;989;53.016;8.346;2022-07-29T07:32:44;20.90;1.00
1978;DHT22;989;53.016;8.346;2022-07-29T07:35:10;21.40;1.00
1978;DHT22;989;53.016;8.346;2022-07-29T07:37:37;22.10;1.00
1978;DHT22;989;53.016;8.346;2022-07-29T07:40:04;22.90;1.00
1978;DHT22;989;53.016;8.346;2022-07-29T07:42:30;23.10;1.00
1978;DHT22;989;53.016;8.346;2022-07-29T07:44:56;23.20;1.00
1978;DHT22;989;53.016;8.346;2022-07-29T07:47:22;23.30;1.00
1978;DHT22;989;53.016;8.346;2022-07-29T07:49:50;23.20;1.00
1978;DHT22;989;53.016;8.346;2022-07-29T07:52:18;23.30;1.00
1978;DHT22;989;53.016;8.346;2022-07-29T07:54:44;24.00;1.00
1978;DHT22;989;53.016;8.346;2022-07-29T07:57:11;23.60;1.00
1978;DHT22;989;53.016;8.346;2022-07-29T07:59:38;24.20;1.00
1978;DHT22;989;53.016;8.346;2022-07-29T08:02:04;23.30;1.00
1978;DHT22;989;53.016;8.346;2022-07-29T08:04:30;23.40;1.00
1978;DHT22;989;53.016;8.346;2022-07-29T08:06:57;23.70;1.00
1978;DHT22;989;53.016;8.346;2022-07-29T08:09:25;24.20;1.00
1978;DHT22;989;53.016;8.346;2022-07-29T08:11:52;24.00;1.00
1978;DHT22;989;53.016;8.346;2022-07-29T08:14:19;24.20;1.00
1978;DHT22;989;53.016;8.346;2022-07-29T08:16:45;24.40;1.00
1978;DHT22;989;53.016;8.346;2022-07-29T08:19:11;24.70;1.00
1978;DHT22;989;53.016;8.346;2022-07-29T08:21:37;25.00;1.00
1978;DHT22;989;53.016;8.346;2022-07-29T08:24:04;24.50;1.00
1978;DHT22;989;53.016;8.346;2022-07-29T08:26:48;24.10;1.00
1978;DHT22;989;53.016;8.346;2022-07-29T08:29:15;23.50;1.00
1978;DHT22;989;53.016;8.346;2022-07-29T08:31:42;23.10;1.00
1978;DHT22;989;53.016;8.346;2022-07-29T08:34:08;23.10;1.00
1978;DHT22;989;53.016;8.346;2022-07-29T08:36:34;23.00;1.00
1978;DHT22;989;53.016;8.346;2022-07-29T08:39:00;23.00;1.00
1978;DHT22;989;53.016;8.346;2022-07-29T08:41:27;22.80;1.00
1978;DHT22;989;53.016;8.346;2022-07-29T08:43:53;23.40;1.00
1978;DHT22;989;53.016;8.346;2022-07-29T08:46:20;23.60;1.00
1978;DHT22;989;53.016;8.346;2022-07-29T08:48:47;24.20;1.00
1978;DHT22;989;53.016;8.346;2022-07-29T08:51:15;24.10;1.00
1978;DHT22;989;53.016;8.346;2022-07-29T08:53:46;24.20;1.00
1978;DHT22;989;53.016;8.346;2022-07-29T08:56:15;24.60;1.00
1978;DHT22;989;53.016;8.346;2022-07-29T08:58:43;24.40;1.00
1978;DHT22;989;53.016;8.346;2022-07-29T09:01:10;24.40;1.00
1978;DHT22;989;53.016;8.346;2022-07-29T09:03:38;24.10;1.00
1978;DHT22;989;53.016;8.346;2022-07-29T09:06:05;23.60;1.00
1978;DHT22;989;53.016;8.346;2022-07-29T09:08:32;23.80;1.00
1978;DHT22;989;53.016;8.346;2022-07-29T09:11:01;24.10;1.00
1978;DHT22;989;53.016;8.346;2022-07-29T09:13:27;24.20;1.00
1978;DHT22;989;53.016;8.346;2022-07-29T09:15:53;24.20;1.00
1978;DHT22;989;53.016;8.346;2022-07-29T09:18:37;24.50;1.00
1978;DHT22;989;53.016;8.346;2022-07-29T09:21:05;24.70;1.00
1978;DHT22;989;53.016;8.346;2022-07-29T09:24:08;24.70;1.00
1978;DHT22;989;53.016;8.346;2022-07-29T09:26:41;25.50;1.00
1978;DHT22;989;53.016;8.346;2022-07-29T09:29:16;25.40;1.00
1978;DHT22;989;53.016;8.346;2022-07-29T09:31:44;26.30;1.00
1978;DHT22;989;53.016;8.346;2022-07-29T09:34:11;26.20;1.00
1978;DHT22;989;53.016;8.346;2022-07-29T09:36:48;26.00;1.00
1978;DHT22;989;53.016;8.346;2022-07-29T09:39:24;26.30;1.00
1978;DHT22;989;53.016;8.346;2022-07-29T09:41:55;26.20;1.00
1978;DHT22;989;53.016;8.346;2022-07-29T09:44:22;26.70;1.00
1978;DHT22;989;53.016;8.346;2022-07-29T09:47:02;27.00;1.00
1978;DHT22;989;53.016;8.346;2022-07-29T09:49:32;26.80;1.00
1978;DHT22;989;53.016;8.346;2022-07-29T09:52:09;26.00;1.00
1978;DHT22;989;53.016;8.346;2022-07-29T09:54:37;25.80;1.00
1978;DHT22;989;53.016;8.346;2022-07-29T09:57:05;25.80;1.00
1978;DHT22;989;53.016;8.346;2022-07-29T09:59:32;25.80;1.00
1978;DHT22;989;53.016;8.346;2022-07-29T10:01:58;26.40;1.00
1978;DHT22;989;53.016;8.346;2022-07-29T10:04:36;27.50;1.00
1978;DHT22;989;53.016;8.346;2022-07-29T10:07:03;28.20;1.00
1978;DHT22;989;53.016;8.346;2022-07-29T10:09:31;28.00;1.00
1978;DHT22;989;53.016;8.346;2022-07-29T10:12:05;27.80;1.00
1978;DHT22;989;53.016;8.346;2022-07-29T10:14:32;28.20;1.00
1978;DHT22;989;53.016;8.346;2022-07-29T10:17:02;28.30;1.00
1978;DHT22;989;53.016;8.346;2022-07-29T10:19:33;28.20;1.00
1978;DHT22;989;53.016;8.346;2022-07-29T10:22:01;28.20;1.00
1978;DHT22;989;53.016;8.346;2022-07-29T10:24:29;27.70;1.00
1978;DHT22;989;53.016;8.346;2022-07-29T10:26:56;27.90;1.00
1978;DHT22;989;53.016;8.346;2022-07-29T10:29:23;27.80;1.00
1978;DHT22;989;53.016;8.346;2022-07-29T10:32:33;28.10;1.00
1978;DHT22;989;53.016;8.346;2022-07-29T10:35:01;27.60;1.00
1978;DHT22;989;53.016;8.346;2022-07-29T10:37:46;28.90;1.00
1978;DHT22;989;53.016;8.346;2022-07-29T10:43:21;30.20;1.00
1978;DHT22;989;53.016;8.346;2022-07-29T10:45:48;29.10;1.00
1978;DHT22;989;53.016;8.346;2022-07-29T10:48:15;29.00;1.00
1978;DHT22;989;53.016;8.346;2022-07-29T10:51:02;29.10;1.00
1978;DHT22;989;53.016;8.346;2022-07-29T10:53:50;28.50;1.00
1978;DHT22;989;53.016;8.346;2022-07-29T10:56:30;28.40;1.00
1978;DHT22;989;53.016;8.346;2022-07-29T11:01:49;29.20;1.00
1978;DHT22;989;53.016;8.346;2022-07-29T11:04:30;29.40;1.00
1978;DHT22;989;53.016;8.346;2022-07-29T11:09:31;30.50;1.00
1978;DHT22;989;53.016;8.346;2022-07-29T11:11:57;30.00;1.00
1978;DHT22;989;53.016;8.346;2022-07-29T11:14:55;29.90;1.00
1978;DHT22;989;53.016;8.346;2022-07-29T11:17:21;29.90;1.00
1978;DHT22;989;53.016;8.346;2022-07-29T11:19:47;29.80;1.00
1978;DHT22;989;53.016;8.346;2022-07-29T11:22:32;29.20;1.00
1978;DHT22;989;53.016;8.346;2022-07-29T11:25:17;29.00;1.00
1978;DHT22;989;53.016;8.346;2022-07-29T11:27:44;28.30;1.00
1978;DHT22;989;53.016;8.346;2022-07-29T11:30:11;28.30;1.00
1978;DHT22;989;53.016;8.346;2022-07-29T11:32:42;27.50;1.00
1978;DHT22;989;53.016;8.346;2022-07-29T11:35:17;27.10;1.00
1978;DHT22;989;53.016;8.346;2022-07-29T11:37:44;27.10;1.00
1978;DHT22;989;53.016;8.346;2022-07-29T11:40:11;27.50;1.00
1978;DHT22;989;53.016;8.346;2022-07-29T11:42:39;27.60;1.00
1978;DHT22;989;53.016;8.346;2022-07-29T11:47:35;28.10;1.00
1978;DHT22;989;53.016;8.346;2022-07-29T11:50:05;28.50;1.00
1978;DHT22;989;53.016;8.346;2022-07-29T11:52:38;27.50;1.00
1978;DHT22;989;53.016;8.346;2022-07-29T11:55:11;27.20;1.00
1978;DHT22;989;53.016;8.346;2022-07-29T11:57:49;27.20;1.00
1978;DHT22;989;53.016;8.346;2022-07-29T12:00:33;27.50;1.00
1978;DHT22;989;53.016;8.346;2022-07-29T12:03:04;27.70;1.00
1978;DHT22;989;53.016;8.346;2022-07-29T12:05:39;27.50;1.00
1978;DHT22;989;53.016;8.346;2022-07-29T12:08:07;27.50;1.00
1978;DHT22;989;53.016;8.346;2022-07-29T12:10:34;27.60;1.00
1978;DHT22;989;53.016;8.346;2022-07-29T12:13:00;27.20;1.00
1978;DHT22;989;53.016;8.346;2022-07-29T12:15:26;27.10;1.00
1978;DHT22;989;53.016;8.346;2022-07-29T12:17:53;27.30;1.00
1978;DHT22;989;53.016;8.346;2022-07-29T12:20:25;27.20;1.00
1978;DHT22;989;53.016;8.346;2022-07-29T12:22:51;27.10;1.00
1978;DHT22;989;53.016;8.346;2022-07-29T12:25:19;27.10;1.00
1978;DHT22;989;53.016;8.346;2022-07-29T12:27:46;27.00;1.00
1978;DHT22;989;53.016;8.346;2022-07-29T12:30:15;27.10;1.00
1978;DHT22;989;53.016;8.346;2022-07-29T12:32:44;27.10;1.00
1978;DHT22;989;53.016;8.346;2022-07-29T12:35:15;27.40;1.00
1978;DHT22;989;53.016;8.346;2022-07-29T12:37:43;27.50;1.00
1978;DHT22;989;53.016;8.346;2022-07-29T12:40:12;27.50;1.00
1978;DHT22;989;53.016;8.346;2022-07-29T12:42:39;27.40;1.00
1978;DHT22;989;53.016;8.346;2022-07-29T12:45:07;27.30;1.00
1978;DHT22;989;53.016;8.346;2022-07-29T12:47:33;27.50;1.00
1978;DHT22;989;53.016;8.346;2022-07-29T12:50:16;27.60;1.00
1978;DHT22;989;53.016;8.346;2022-07-29T12:52:44;27.50;1.00
1978;DHT22;989;53.016;8.346;2022-07-29T12:55:11;27.30;1.00
1978;DHT22;989;53.016;8.346;2022-07-29T12:57:48;27.30;1.00
1978;DHT22;989;53.016;8.346;2022-07-29T13:00:21;27.00;1.00
1978;DHT22;989;53.016;8.346;2022-07-29T13:02:55;27.00;1.00
1978;DHT22;989;53.016;8.346;2022-07-29T13:05:21;26.80;1.00
1978;DHT22;989;53.016;8.346;2022-07-29T13:07:48;26.80;1.00
1978;DHT22;989;53.016;8.346;2022-07-29T13:10:17;26.60;1.00
1978;DHT22;989;53.016;8.346;2022-07-29T13:13:09;26.50;1.00
1978;DHT22;989;53.016;8.346;2022-07-29T13:15:38;26.40;1.00
1978;DHT22;989;53.016;8.346;2022-07-29T13:18:05;26.50;1.00
1978;DHT22;989;53.016;8.346;2022-07-29T13:20:31;26.20;1.00
1978;DHT22;989;53.016;8.346;2022-07-29T13:22:59;26.00;1.00
1978;DHT22;989;53.016;8.346;2022-07-29T13:25:28;26.00;1.00
1978;DHT22;989;53.016;8.346;2022-07-29T13:27:55;25.90;1.00
1978;DHT22;989;53.016;8.346;2022-07-29T13:30:22;25.60;1.00
1978;DHT22;989;53.016;8.346;2022-07-29T13:32:49;25.50;1.00
1978;DHT22;989;53.016;8.346;2022-07-29T13:35:16;25.30;1.00
1978;DHT22;989;53.016;8.346;2022-07-29T13:37:42;25.10;1.00
1978;DHT22;989;53.016;8.346;2022-07-29T13:40:09;24.80;1.00
1978;DHT22;989;53.016;8.346;2022-07-29T13:42:35;24.70;1.00
1978;DHT22;989;53.016;8.346;2022-07-29T13:45:03;24.80;1.00
1978;DHT22;989;53.016;8.346;2022-07-29T13:47:30;24.70;1.00
1978;DHT22;989;53.016;8.346;2022-07-29T13:49:56;24.60;1.00
1978;DHT22;989;53.016;8.346;2022-07-29T13:52:22;24.60;1.00
1978;DHT22;989;53.016;8.346;2022-07-29T13:54:48;24.60;1.00
1978;DHT22;989;53.016;8.346;2022-07-29T13:57:14;24.40;1.00
1978;DHT22;989;53.016;8.346;2022-07-29T13:59:41;24.50;1.00
1978;DHT22;989;53.016;8.346;2022-07-29T14:02:11;24.60;1.00
1978;DHT22;989;53.016;8.346;2022-07-29T14:04:38;24.60;1.00
1978;DHT22;989;53.016;8.346;2022-07-29T14:07:04;24.50;1.00
1978;DHT22;989;53.016;8.346;2022-07-29T14:09:30;24.60;1.00
1978;DHT22;989;53.016;8.346;2022-07-29T14:11:56;24.60;1.00
1978;DHT22;989;53.016;8.346;2022-07-29T14:14:23;24.60;1.00
1978;DHT22;989;53.016;8.346;2022-07-29T14:16:49;24.50;1.00
1978;DHT22;989;53.016;8.346;2022-07-29T14:19:15;24.50;1.00
1978;DHT22;989;53.016;8.346;2022-07-29T14:21:41;24.40;1.00
1978;DHT22;989;53.016;8.346;2022-07-29T14:24:07;24.30;1.00
1978;DHT22;989;53.016;8.346;2022-07-29T14:26:33;24.10;1.00
1978;DHT22;989;53.016;8.346;2022-07-29T14:28:59;23.80;1.00
1978;DHT22;989;53.016;8.346;2022-07-29T14:31:25;23.50;1.00
1978;DHT22;989;53.016;8.346;2022-07-29T14:33:51;23.20;1.00
1978;DHT22;989;53.016;8.346;2022-07-29T14:36:17;23.10;1.00
1978;DHT22;989;53.016;8.346;2022-07-29T14:38:44;23.00;1.00
1978;DHT22;989;53.016;8.346;2022-07-29T14:41:10;23.00;1.00
1978;DHT22;989;53.016;8.346;2022-07-29T14:43:36;23.00;1.00
1978;DHT22;989;53.016;8.346;2022-07-29T14:46:02;22.60;1.00
1978;DHT22;989;53.016;8.346;2022-07-29T14:48:28;22.00;1.00
1978;DHT22;989;53.016;8.346;2022-07-29T14:50:54;21.60;1.00
1978;DHT22;989;53.016;8.346;2022-07-29T14:53:22;21.30;1.00
1978;DHT22;989;53.016;8.346;2022-07-29T14:55:48;20.90;1.00
1978;DHT22;989;53.016;8.346;2022-07-29T14:58:14;20.60;1.00
1978;DHT22;989;53.016;8.346;2022-07-29T15:00:40;20.30;1.00
1978;DHT22;989;53.016;8.346;2022-07-29T15:03:06;20.20;1.00
1978;DHT22;989;53.016;8.346;2022-07-29T15:05:35;20.10;1.00
1978;DHT22;989;53.016;8.346;2022-07-29T15:08:02;19.90;1.00
1978;DHT22;989;53.016;8.346;2022-07-29T15:10:28;19.90;1.00
1978;DHT22;989;53.016;8.346;2022-07-29T15:12:55;19.90;1.00
1978;DHT22;989;53.016;8.346;2022-07-29T15:15:21;20.00;1.00
1978;DHT22;989;53.016;8.346;2022-07-29T15:17:48;20.00;1.00
1978;DHT22;989;53.016;8.346;2022-07-29T15:20:14;20.00;1.00
1978;DHT22;989;53.016;8.346;2022-07-29T15:22:40;20.10;1.00
1978;DHT22;989;53.016;8.346;2022-07-29T15:25:08;20.20;1.00
1978;DHT22;989;53.016;8.346;2022-07-29T15:27:34;20.30;1.00
1978;DHT22;989;53.016;8.346;2022-07-29T15:30:00;20.40;1.00
1978;DHT22;989;53.016;8.346;2022-07-29T15:32:26;20.60;1.00
1978;DHT22;989;53.016;8.346;2022-07-29T15:34:52;20.60;1.00
1978;DHT22;989;53.016;8.346;2022-07-29T15:37:18;20.70;1.00
1978;DHT22;989;53.016;8.346;2022-07-29T15:39:44;20.70;1.00
1978;DHT22;989;53.016;8.346;2022-07-29T15:42:10;20.60;1.00
1978;DHT22;989;53.016;8.346;2022-07-29T15:44:36;20.60;1.00
1978;DHT22;989;53.016;8.346;2022-07-29T15:47:02;20.60;1.00
1978;DHT22;989;53.016;8.346;2022-07-29T15:49:36;20.60;1.00
1978;DHT22;989;53.016;8.346;2022-07-29T15:52:06;20.60;1.00
1978;DHT22;989;53.016;8.346;2022-07-29T15:54:34;20.50;1.00
1978;DHT22;989;53.016;8.346;2022-07-29T15:57:00;20.40;1.00
1978;DHT22;989;53.016;8.346;2022-07-29T15:59:26;20.50;1.00
1978;DHT22;989;53.016;8.346;2022-07-29T16:01:52;20.50;1.00
1978;DHT22;989;53.016;8.346;2022-07-29T16:04:19;20.50;1.00
1978;DHT22;989;53.016;8.346;2022-07-29T16:06:46;20.50;1.00
1978;DHT22;989;53.016;8.346;2022-07-29T16:09:13;20.60;1.00
1978;DHT22;989;53.016;8.346;2022-07-29T16:11:40;20.60;1.00
1978;DHT22;989;53.016;8.346;2022-07-29T16:14:06;20.60;1.00
1978;DHT22;989;53.016;8.346;2022-07-29T16:16:32;20.60;1.00
1978;DHT22;989;53.016;8.346;2022-07-29T16:18:58;20.70;1.00
1978;DHT22;989;53.016;8.346;2022-07-29T16:21:24;20.70;1.00
1978;DHT22;989;53.016;8.346;2022-07-29T16:23:50;20.80;1.00
1978;DHT22;989;53.016;8.346;2022-07-29T16:26:16;20.80;1.00
1978;DHT22;989;53.016;8.346;2022-07-29T16:28:43;20.80;1.00
1978;DHT22;989;53.016;8.346;2022-07-29T16:31:09;20.80;1.00
1978;DHT22;989;53.016;8.346;2022-07-29T16:33:35;20.70;1.00
1978;DHT22;989;53.016;8.346;2022-07-29T16:36:01;20.70;1.00
1978;DHT22;989;53.016;8.346;2022-07-29T16:38:27;20.60;1.00
1978;DHT22;989;53.016;8.346;2022-07-29T16:40:53;20.60;1.00
1978;DHT22;989;53.016;8.346;2022-07-29T16:43:19;20.60;1.00
1978;DHT22;989;53.016;8.346;2022-07-29T16:45:45;20.50;1.00
1978;DHT22;989;53.016;8.346;2022-07-29T16:48:12;20.60;1.00
1978;DHT22;989;53.016;8.346;2022-07-29T16:50:38;20.60;1.00
1978;DHT22;989;53.016;8.346;2022-07-29T16:53:05;20.60;1.00
1978;DHT22;989;53.016;8.346;2022-07-29T16:55:31;20.50;1.00
1978;DHT22;989;53.016;8.346;2022-07-29T16:57:57;20.60;1.00
1978;DHT22;989;53.016;8.346;2022-07-29T17:00:23;20.60;1.00